sensor_id;sensor_type;location;lat;lon;timestamp;P1;durP1;ratioP1;P2;durP2;ratioP2
4986;SDS011;12674;51.500;7.552;2023-04-25T00:01:36;13.60;;;5.47;;
4986;SDS011;12674;51.500;7.552;2023-04-25T00:03:39;18.43;;;5.40;;
4986;SDS011;12674;51.500;7.552;2023-04-25T00:05:42;13.80;;;4.83;;
4986;SDS011;12674;51.500;7.552;2023-04-25T00:07:46;25.93;;;5.03;;
4986;SDS011;12674;51.500;7.552;2023-04-25T00:09:49;17.57;;;5.70;;
4986;SDS011;12674;51.500;7.552;2023-04-25T00:11:53;9.47;;;4.63;;
4986;SDS011;12674;51.500;7.552;2023-04-25T00:13:57;21.47;;;6.30;;
4986;SDS011;12674;51.500;7.552;2023-04-25T00:16:01;18.50;;;5.33;;
4986;SDS011;12674;51.500;7.552;2023-04-25T00:18:04;14.57;;;5.20;;
4986;SDS011;12674;51.500;7.552;2023-04-25T00:20:08;17.20;;;5.23;;
4986;SDS011;12674;51.500;7.552;2023-04-25T00:22:12;15.77;;;5.47;;
4986;SDS011;12674;51.500;7.552;2023-04-25T00:24:15;15.60;;;6.23;;
4986;SDS011;12674;51.500;7.552;2023-04-25T00:26:18;14.10;;;5.73;;
4986;SDS011;12674;51.500;7.552;2023-04-25T00:28:23;22.63;;;5.70;;
4986;SDS011;12674;51.500;7.552;2023-04-25T00:30:26;11.70;;;4.97;;
4986;SDS011;12674;51.500;7.552;2023-04-25T00:32:29;12.63;;;5.00;;
4986;SDS011;12674;51.500;7.552;2023-04-25T00:34:32;21.23;;;5.47;;
4986;SDS011;12674;51.500;7.552;2023-04-25T00:36:36;15.67;;;6.10;;
4986;SDS011;12674;51.500;7.552;2023-04-25T00:38:39;19.70;;;5.33;;
4986;SDS011;12674;51.500;7.552;2023-04-25T00:40:43;14.10;;;5.30;;
4986;SDS011;12674;51.500;7.552;2023-04-25T00:42:46;13.37;;;5.90;;
4986;SDS011;12674;51.500;7.552;2023-04-25T00:44:50;14.70;;;4.93;;
4986;SDS011;12674;51.500;7.552;2023-04-25T00:46:54;23.20;;;6.33;;
4986;SDS011;12674;51.500;7.552;2023-04-25T00:48:57;14.73;;;6.10;;
4986;SDS011;12674;51.500;7.552;2023-04-25T00:51:00;14.70;;;5.63;;
4986;SDS011;12674;51.500;7.552;2023-04-25T00:53:03;19.00;;;5.80;;
4986;SDS011;12674;51.500;7.552;2023-04-25T00:55:07;25.40;;;6.80;;
4986;SDS011;12674;51.500;7.552;2023-04-25T00:57:10;14.27;;;6.37;;
4986;SDS011;12674;51.500;7.552;2023-04-25T00:59:13;17.13;;;5.87;;
4986;SDS011;12674;51.500;7.552;2023-04-25T01:01:18;16.30;;;6.33;;
4986;SDS011;12674;51.500;7.552;2023-04-25T01:03:21;23.17;;;6.83;;
4986;SDS011;12674;51.500;7.552;2023-04-25T01:05:24;14.37;;;6.53;;
4986;SDS011;12674;51.500;7.552;2023-04-25T01:07:27;17.00;;;6.70;;
4986;SDS011;12674;51.500;7.552;2023-04-25T01:09:30;18.47;;;6.67;;
4986;SDS011;12674;51.500;7.552;2023-04-25T01:11:35;16.90;;;6.10;;
4986;SDS011;12674;51.500;7.552;2023-04-25T01:13:38;15.00;;;6.90;;
4986;SDS011;12674;51.500;7.552;2023-04-25T01:15:40;11.63;;;5.70;;
4986;SDS011;12674;51.500;7.552;2023-04-25T01:17:45;12.83;;;5.80;;
4986;SDS011;12674;51.500;7.552;2023-04-25T01:19:48;10.33;;;5.37;;
4986;SDS011;12674;51.500;7.552;2023-04-25T01:21:53;8.37;;;5.37;;
4986;SDS011;12674;51.500;7.552;2023-04-25T01:23:56;12.73;;;5.93;;
4986;SDS011;12674;51.500;7.552;2023-04-25T01:26:00;12.40;;;6.00;;
4986;SDS011;12674;51.500;7.552;2023-04-25T01:28:03;11.03;;;5.50;;
4986;SDS011;12674;51.500;7.552;2023-04-25T01:30:07;16.27;;;6.20;;
4986;SDS011;12674;51.500;7.552;2023-04-25T01:32:11;13.80;;;6.27;;
4986;SDS011;12674;51.500;7.552;2023-04-25T01:34:15;17.13;;;6.50;;
4986;SDS011;12674;51.500;7.552;2023-04-25T01:36:18;12.80;;;6.40;;
4986;SDS011;12674;51.500;7.552;2023-04-25T01:38:22;8.83;;;6.30;;
4986;SDS011;12674;51.500;7.552;2023-04-25T01:40:26;11.33;;;6.53;;
4986;SDS011;12674;51.500;7.552;2023-04-25T01:42:31;14.13;;;6.37;;
4986;SDS011;12674;51.500;7.552;2023-04-25T01:44:34;10.77;;;6.10;;
4986;SDS011;12674;51.500;7.552;2023-04-25T01:46:37;12.03;;;5.63;;
4986;SDS011;12674;51.500;7.552;2023-04-25T01:48:40;16.77;;;6.77;;
4986;SDS011;12674;51.500;7.552;2023-04-25T01:50:43;13.87;;;6.60;;
4986;SDS011;12674;51.500;7.552;2023-04-25T01:52:46;9.50;;;6.50;;
4986;SDS011;12674;51.500;7.552;2023-04-25T01:54:51;15.57;;;7.60;;
4986;SDS011;12674;51.500;7.552;2023-04-25T01:56:55;16.10;;;8.20;;
4986;SDS011;12674;51.500;7.552;2023-04-25T01:59:00;12.70;;;6.80;;
4986;SDS011;12674;51.500;7.552;2023-04-25T02:01:35;14.03;;;7.37;;
4986;SDS011;12674;51.500;7.552;2023-04-25T02:03:50;16.70;;;7.77;;
4986;SDS011;12674;51.500;7.552;2023-04-25T02:05:59;19.63;;;8.20;;
4986;SDS011;12674;51.500;7.552;2023-04-25T02:08:04;14.17;;;7.43;;
4986;SDS011;12674;51.500;7.552;2023-04-25T02:10:10;12.80;;;6.50;;
4986;SDS011;12674;51.500;7.552;2023-04-25T02:12:29;11.37;;;5.70;;
4986;SDS011;12674;51.500;7.552;2023-04-25T02:14:35;14.57;;;6.50;;
4986;SDS011;12674;51.500;7.552;2023-04-25T02:16:58;16.63;;;6.63;;
4986;SDS011;12674;51.500;7.552;2023-04-25T02:19:04;10.80;;;7.87;;
4986;SDS011;12674;51.500;7.552;2023-04-25T02:21:07;13.50;;;7.60;;
4986;SDS011;12674;51.500;7.552;2023-04-25T02:23:11;13.30;;;7.23;;
4986;SDS011;12674;51.500;7.552;2023-04-25T02:25:16;18.83;;;7.90;;
4986;SDS011;12674;51.500;7.552;2023-04-25T02:27:20;14.83;;;8.87;;
4986;SDS011;12674;51.500;7.552;2023-04-25T02:29:23;17.83;;;8.40;;
4986;SDS011;12674;51.500;7.552;2023-04-25T02:31:26;22.20;;;8.70;;
4986;SDS011;12674;51.500;7.552;2023-04-25T02:33:31;14.10;;;8.90;;
4986;SDS011;12674;51.500;7.552;2023-04-25T02:35:34;17.43;;;9.40;;
4986;SDS011;12674;51.500;7.552;2023-04-25T02:37:38;19.57;;;9.43;;
4986;SDS011;12674;51.500;7.552;2023-04-25T02:39:42;14.63;;;8.50;;
4986;SDS011;12674;51.500;7.552;2023-04-25T02:41:49;17.17;;;8.23;;
4986;SDS011;12674;51.500;7.552;2023-04-25T02:43:52;14.90;;;8.03;;
4986;SDS011;12674;51.500;7.552;2023-04-25T02:45:55;18.07;;;8.20;;
4986;SDS011;12674;51.500;7.552;2023-04-25T02:47:58;18.20;;;9.20;;
4986;SDS011;12674;51.500;7.552;2023-04-25T02:50:05;18.57;;;9.40;;
4986;SDS011;12674;51.500;7.552;2023-04-25T02:52:09;16.37;;;9.30;;
4986;SDS011;12674;51.500;7.552;2023-04-25T02:54:12;15.03;;;8.50;;
4986;SDS011;12674;51.500;7.552;2023-04-25T02:56:19;11.97;;;8.47;;
4986;SDS011;12674;51.500;7.552;2023-04-25T02:58:24;22.83;;;10.00;;
4986;SDS011;12674;51.500;7.552;2023-04-25T03:00:29;21.97;;;9.37;;
4986;SDS011;12674;51.500;7.552;2023-04-25T03:02:34;13.50;;;8.70;;
4986;SDS011;12674;51.500;7.552;2023-04-25T03:04:37;15.30;;;9.40;;
4986;SDS011;12674;51.500;7.552;2023-04-25T03:06:40;18.67;;;10.43;;
4986;SDS011;12674;51.500;7.552;2023-04-25T03:08:43;25.90;;;11.70;;
4986;SDS011;12674;51.500;7.552;2023-04-25T03:10:46;20.03;;;9.73;;
4986;SDS011;12674;51.500;7.552;2023-04-25T03:12:50;14.57;;;10.00;;
4986;SDS011;12674;51.500;7.552;2023-04-25T03:14:55;19.90;;;10.77;;
4986;SDS011;12674;51.500;7.552;2023-04-25T03:16:59;18.73;;;10.87;;
4986;SDS011;12674;51.500;7.552;2023-04-25T03:19:02;17.90;;;10.20;;
4986;SDS011;12674;51.500;7.552;2023-04-25T03:21:05;17.60;;;10.23;;
4986;SDS011;12674;51.500;7.552;2023-04-25T03:23:08;17.87;;;9.70;;
4986;SDS011;12674;51.500;7.552;2023-04-25T03:25:13;26.00;;;10.83;;
4986;SDS011;12674;51.500;7.552;2023-04-25T03:27:20;15.93;;;10.13;;
4986;SDS011;12674;51.500;7.552;2023-04-25T03:29:23;20.70;;;10.70;;
4986;SDS011;12674;51.500;7.552;2023-04-25T03:31:31;21.57;;;9.50;;
4986;SDS011;12674;51.500;7.552;2023-04-25T03:33:34;24.10;;;8.73;;
4986;SDS011;12674;51.500;7.552;2023-04-25T03:35:37;16.17;;;9.10;;
4986;SDS011;12674;51.500;7.552;2023-04-25T03:37:41;23.13;;;8.87;;
4986;SDS011;12674;51.500;7.552;2023-04-25T03:39:51;19.43;;;8.90;;
4986;SDS011;12674;51.500;7.552;2023-04-25T03:41:56;18.50;;;9.07;;
4986;SDS011;12674;51.500;7.552;2023-04-25T03:43:59;23.83;;;8.43;;
4986;SDS011;12674;51.500;7.552;2023-04-25T03:46:02;19.83;;;8.03;;
4986;SDS011;12674;51.500;7.552;2023-04-25T03:48:06;18.77;;;8.70;;
4986;SDS011;12674;51.500;7.552;2023-04-25T03:50:10;12.23;;;7.00;;
4986;SDS011;12674;51.500;7.552;2023-04-25T03:52:15;18.97;;;8.30;;
4986;SDS011;12674;51.500;7.552;2023-04-25T03:54:19;21.83;;;8.57;;
4986;SDS011;12674;51.500;7.552;2023-04-25T03:56:33;15.27;;;7.53;;
4986;SDS011;12674;51.500;7.552;2023-04-25T03:58:46;14.63;;;7.03;;
4986;SDS011;12674;51.500;7.552;2023-04-25T04:00:51;15.37;;;7.00;;
4986;SDS011;12674;51.500;7.552;2023-04-25T04:02:54;28.40;;;8.07;;
4986;SDS011;12674;51.500;7.552;2023-04-25T04:04:58;18.77;;;6.90;;
4986;SDS011;12674;51.500;7.552;2023-04-25T04:07:03;12.97;;;6.10;;
4986;SDS011;12674;51.500;7.552;2023-04-25T04:09:09;14.93;;;7.27;;
4986;SDS011;12674;51.500;7.552;2023-04-25T04:11:16;17.80;;;7.57;;
4986;SDS011;12674;51.500;7.552;2023-04-25T04:13:19;14.37;;;6.07;;
4986;SDS011;12674;51.500;7.552;2023-04-25T04:15:22;13.50;;;6.57;;
4986;SDS011;12674;51.500;7.552;2023-04-25T04:17:25;17.13;;;7.10;;
4986;SDS011;12674;51.500;7.552;2023-04-25T04:19:28;18.07;;;6.83;;
4986;SDS011;12674;51.500;7.552;2023-04-25T04:21:59;22.90;;;7.43;;
4986;SDS011;12674;51.500;7.552;2023-04-25T04:24:02;18.03;;;6.43;;
4986;SDS011;12674;51.500;7.552;2023-04-25T04:26:18;20.83;;;6.17;;
4986;SDS011;12674;51.500;7.552;2023-04-25T04:28:38;19.63;;;6.63;;
4986;SDS011;12674;51.500;7.552;2023-04-25T04:31:04;15.50;;;5.47;;
4986;SDS011;12674;51.500;7.552;2023-04-25T04:33:09;9.60;;;4.37;;
4986;SDS011;12674;51.500;7.552;2023-04-25T04:35:14;10.50;;;3.30;;
4986;SDS011;12674;51.500;7.552;2023-04-25T04:37:19;9.53;;;3.43;;
4986;SDS011;12674;51.500;7.552;2023-04-25T04:39:22;10.63;;;3.33;;
4986;SDS011;12674;51.500;7.552;2023-04-25T04:41:36;13.47;;;3.57;;
4986;SDS011;12674;51.500;7.552;2023-04-25T04:43:45;17.10;;;3.80;;
4986;SDS011;12674;51.500;7.552;2023-04-25T04:46:06;7.80;;;3.30;;
4986;SDS011;12674;51.500;7.552;2023-04-25T04:48:31;12.67;;;3.43;;
4986;SDS011;12674;51.500;7.552;2023-04-25T04:50:50;12.30;;;3.10;;
4986;SDS011;12674;51.500;7.552;2023-04-25T04:53:19;12.33;;;3.00;;
4986;SDS011;12674;51.500;7.552;2023-04-25T04:55:40;8.63;;;3.00;;
4986;SDS011;12674;51.500;7.552;2023-04-25T04:58:03;9.33;;;3.70;;
4986;SDS011;12674;51.500;7.552;2023-04-25T05:00:27;5.83;;;2.60;;
4986;SDS011;12674;51.500;7.552;2023-04-25T05:02:46;9.57;;;2.87;;
4986;SDS011;12674;51.500;7.552;2023-04-25T05:05:24;9.60;;;3.27;;
4986;SDS011;12674;51.500;7.552;2023-04-25T05:07:45;13.80;;;4.00;;
4986;SDS011;12674;51.500;7.552;2023-04-25T05:10:09;8.57;;;3.13;;
4986;SDS011;12674;51.500;7.552;2023-04-25T05:12:30;18.67;;;3.47;;
4986;SDS011;12674;51.500;7.552;2023-04-25T05:14:58;6.90;;;3.07;;
4986;SDS011;12674;51.500;7.552;2023-04-25T05:17:22;12.53;;;2.97;;
4986;SDS011;12674;51.500;7.552;2023-04-25T05:19:43;13.13;;;3.37;;
4986;SDS011;12674;51.500;7.552;2023-04-25T05:22:08;14.73;;;3.30;;
4986;SDS011;12674;51.500;7.552;2023-04-25T05:24:24;14.40;;;3.30;;
4986;SDS011;12674;51.500;7.552;2023-04-25T05:26:47;7.17;;;2.77;;
4986;SDS011;12674;51.500;7.552;2023-04-25T05:29:09;9.20;;;3.10;;
4986;SDS011;12674;51.500;7.552;2023-04-25T05:31:20;19.30;;;3.53;;
4986;SDS011;12674;51.500;7.552;2023-04-25T05:33:35;13.93;;;3.00;;
4986;SDS011;12674;51.500;7.552;2023-04-25T05:35:39;12.87;;;3.40;;
4986;SDS011;12674;51.500;7.552;2023-04-25T05:37:42;15.73;;;3.90;;
4986;SDS011;12674;51.500;7.552;2023-04-25T05:39:47;16.00;;;4.03;;
4986;SDS011;12674;51.500;7.552;2023-04-25T05:42:20;8.73;;;2.83;;
4986;SDS011;12674;51.500;7.552;2023-04-25T05:44:23;8.60;;;2.83;;
4986;SDS011;12674;51.500;7.552;2023-04-25T05:46:48;13.20;;;4.03;;
4986;SDS011;12674;51.500;7.552;2023-04-25T05:49:05;15.53;;;3.60;;
4986;SDS011;12674;51.500;7.552;2023-04-25T05:51:31;13.20;;;3.10;;
4986;SDS011;12674;51.500;7.552;2023-04-25T05:53:47;13.80;;;4.00;;
4986;SDS011;12674;51.500;7.552;2023-04-25T05:55:51;13.43;;;4.03;;
4986;SDS011;12674;51.500;7.552;2023-04-25T05:58:01;17.40;;;3.97;;
4986;SDS011;12674;51.500;7.552;2023-04-25T06:00:04;13.47;;;3.43;;
4986;SDS011;12674;51.500;7.552;2023-04-25T06:02:18;11.20;;;3.70;;
4986;SDS011;12674;51.500;7.552;2023-04-25T06:04:23;19.37;;;4.10;;
4986;SDS011;12674;51.500;7.552;2023-04-25T06:06:28;11.67;;;3.33;;
4986;SDS011;12674;51.500;7.552;2023-04-25T06:08:33;15.40;;;4.60;;
4986;SDS011;12674;51.500;7.552;2023-04-25T06:10:37;14.07;;;4.30;;
4986;SDS011;12674;51.500;7.552;2023-04-25T06:12:40;20.83;;;4.00;;
4986;SDS011;12674;51.500;7.552;2023-04-25T06:14:45;14.47;;;4.50;;
4986;SDS011;12674;51.500;7.552;2023-04-25T06:16:49;20.23;;;4.47;;
4986;SDS011;12674;51.500;7.552;2023-04-25T06:18:52;11.77;;;3.70;;
4986;SDS011;12674;51.500;7.552;2023-04-25T06:20:55;15.20;;;4.30;;
4986;SDS011;12674;51.500;7.552;2023-04-25T06:22:58;20.83;;;4.40;;
4986;SDS011;12674;51.500;7.552;2023-04-25T06:25:14;18.50;;;4.73;;
4986;SDS011;12674;51.500;7.552;2023-04-25T06:27:17;27.37;;;5.37;;
4986;SDS011;12674;51.500;7.552;2023-04-25T06:29:20;18.87;;;3.87;;
4986;SDS011;12674;51.500;7.552;2023-04-25T06:31:25;16.83;;;4.83;;
4986;SDS011;12674;51.500;7.552;2023-04-25T06:33:29;12.30;;;5.40;;
4986;SDS011;12674;51.500;7.552;2023-04-25T06:35:32;17.17;;;4.50;;
4986;SDS011;12674;51.500;7.552;2023-04-25T06:37:35;12.80;;;3.73;;
4986;SDS011;12674;51.500;7.552;2023-04-25T06:39:38;18.00;;;4.23;;
4986;SDS011;12674;51.500;7.552;2023-04-25T06:41:41;11.27;;;3.80;;
4986;SDS011;12674;51.500;7.552;2023-04-25T06:44:04;18.07;;;4.03;;
4986;SDS011;12674;51.500;7.552;2023-04-25T06:46:17;22.77;;;4.13;;
4986;SDS011;12674;51.500;7.552;2023-04-25T06:48:24;21.80;;;4.17;;
4986;SDS011;12674;51.500;7.552;2023-04-25T06:50:27;20.17;;;4.10;;
4986;SDS011;12674;51.500;7.552;2023-04-25T06:52:30;22.93;;;5.20;;
4986;SDS011;12674;51.500;7.552;2023-04-25T06:54:34;12.00;;;4.70;;
4986;SDS011;12674;51.500;7.552;2023-04-25T06:56:49;22.17;;;4.70;;
4986;SDS011;12674;51.500;7.552;2023-04-25T06:58:52;23.07;;;5.07;;
4986;SDS011;12674;51.500;7.552;2023-04-25T07:01:03;19.17;;;4.63;;
4986;SDS011;12674;51.500;7.552;2023-04-25T07:03:06;15.23;;;4.20;;
4986;SDS011;12674;51.500;7.552;2023-04-25T07:05:11;15.23;;;4.20;;
4986;SDS011;12674;51.500;7.552;2023-04-25T07:07:14;11.90;;;3.87;;
4986;SDS011;12674;51.500;7.552;2023-04-25T07:09:24;22.43;;;4.20;;
4986;SDS011;12674;51.500;7.552;2023-04-25T07:11:27;11.73;;;3.77;;
4986;SDS011;12674;51.500;7.552;2023-04-25T07:13:30;11.10;;;3.67;;
4986;SDS011;12674;51.500;7.552;2023-04-25T07:15:33;15.50;;;4.10;;
4986;SDS011;12674;51.500;7.552;2023-04-25T07:17:36;18.80;;;4.67;;
4986;SDS011;12674;51.500;7.552;2023-04-25T07:19:39;12.65;;;3.53;;
4986;SDS011;12674;51.500;7.552;2023-04-25T07:21:44;19.08;;;4.20;;
4986;SDS011;12674;51.500;7.552;2023-04-25T07:23:47;14.18;;;3.63;;
4986;SDS011;12674;51.500;7.552;2023-04-25T07:25:54;17.45;;;4.05;;
4986;SDS011;12674;51.500;7.552;2023-04-25T07:27:59;15.93;;;4.07;;
4986;SDS011;12674;51.500;7.552;2023-04-25T07:30:03;28.40;;;5.40;;
4986;SDS011;12674;51.500;7.552;2023-04-25T07:32:06;20.98;;;4.43;;
4986;SDS011;12674;51.500;7.552;2023-04-25T07:34:09;16.13;;;4.20;;
4986;SDS011;12674;51.500;7.552;2023-04-25T07:36:13;14.25;;;3.97;;
4986;SDS011;12674;51.500;7.552;2023-04-25T07:38:19;17.65;;;3.72;;
4986;SDS011;12674;51.500;7.552;2023-04-25T07:40:22;14.13;;;3.35;;
4986;SDS011;12674;51.500;7.552;2023-04-25T07:42:30;17.75;;;4.07;;
4986;SDS011;12674;51.500;7.552;2023-04-25T07:44:33;17.70;;;3.83;;
4986;SDS011;12674;51.500;7.552;2023-04-25T07:46:41;15.50;;;4.05;;
4986;SDS011;12674;51.500;7.552;2023-04-25T07:48:43;16.30;;;4.47;;
4986;SDS011;12674;51.500;7.552;2023-04-25T07:50:46;18.13;;;4.00;;
4986;SDS011;12674;51.500;7.552;2023-04-25T07:52:50;24.20;;;4.70;;
4986;SDS011;12674;51.500;7.552;2023-04-25T07:55:03;19.27;;;3.90;;
4986;SDS011;12674;51.500;7.552;2023-04-25T07:57:16;17.00;;;4.03;;
4986;SDS011;12674;51.500;7.552;2023-04-25T07:59:21;18.73;;;5.20;;
4986;SDS011;12674;51.500;7.552;2023-04-25T08:01:24;19.30;;;4.60;;
4986;SDS011;12674;51.500;7.552;2023-04-25T08:03:32;15.80;;;4.17;;
4986;SDS011;12674;51.500;7.552;2023-04-25T08:05:38;17.83;;;5.03;;
4986;SDS011;12674;51.500;7.552;2023-04-25T08:07:41;20.47;;;4.20;;
4986;SDS011;12674;51.500;7.552;2023-04-25T08:09:45;14.77;;;3.83;;
4986;SDS011;12674;51.500;7.552;2023-04-25T08:11:57;20.17;;;4.60;;
4986;SDS011;12674;51.500;7.552;2023-04-25T08:14:05;24.30;;;4.60;;
4986;SDS011;12674;51.500;7.552;2023-04-25T08:16:08;17.53;;;4.67;;
4986;SDS011;12674;51.500;7.552;2023-04-25T08:18:12;18.07;;;4.40;;
4986;SDS011;12674;51.500;7.552;2023-04-25T08:20:18;20.70;;;4.00;;
4986;SDS011;12674;51.500;7.552;2023-04-25T08:22:23;21.40;;;3.60;;
4986;SDS011;12674;51.500;7.552;2023-04-25T08:24:36;20.73;;;3.43;;
4986;SDS011;12674;51.500;7.552;2023-04-25T08:26:42;17.63;;;3.97;;
4986;SDS011;12674;51.500;7.552;2023-04-25T08:28:50;21.13;;;4.23;;
4986;SDS011;12674;51.500;7.552;2023-04-25T08:30:54;12.80;;;3.03;;
4986;SDS011;12674;51.500;7.552;2023-04-25T08:32:57;15.27;;;3.80;;
4986;SDS011;12674;51.500;7.552;2023-04-25T08:35:21;14.73;;;3.40;;
4986;SDS011;12674;51.500;7.552;2023-04-25T08:37:25;15.87;;;3.50;;
4986;SDS011;12674;51.500;7.552;2023-04-25T08:39:33;11.93;;;3.07;;
4986;SDS011;12674;51.500;7.552;2023-04-25T08:41:56;11.37;;;3.47;;
4986;SDS011;12674;51.500;7.552;2023-04-25T08:44:00;19.37;;;3.60;;
4986;SDS011;12674;51.500;7.552;2023-04-25T08:46:03;12.53;;;3.47;;
4986;SDS011;12674;51.500;7.552;2023-04-25T08:48:15;17.20;;;3.70;;
4986;SDS011;12674;51.500;7.552;2023-04-25T08:50:19;10.67;;;3.30;;
4986;SDS011;12674;51.500;7.552;2023-04-25T08:52:25;12.27;;;3.10;;
4986;SDS011;12674;51.500;7.552;2023-04-25T08:54:31;14.07;;;2.87;;
4986;SDS011;12674;51.500;7.552;2023-04-25T08:56:37;15.53;;;2.70;;
4986;SDS011;12674;51.500;7.552;2023-04-25T08:58:40;7.50;;;2.00;;
4986;SDS011;12674;51.500;7.552;2023-04-25T09:00:45;13.47;;;3.57;;
4986;SDS011;12674;51.500;7.552;2023-04-25T09:02:49;10.73;;;3.23;;
4986;SDS011;12674;51.500;7.552;2023-04-25T09:04:52;14.83;;;3.00;;
4986;SDS011;12674;51.500;7.552;2023-04-25T09:06:57;20.50;;;2.75;;
4986;SDS011;12674;51.500;7.552;2023-04-25T09:09:01;8.65;;;3.45;;
4986;SDS011;12674;51.500;7.552;2023-04-25T09:11:06;15.23;;;3.25;;
4986;SDS011;12674;51.500;7.552;2023-04-25T09:13:11;9.95;;;2.95;;
4986;SDS011;12674;51.500;7.552;2023-04-25T09:15:47;15.30;;;3.08;;
4986;SDS011;12674;51.500;7.552;2023-04-25T09:18:10;10.70;;;2.65;;
4986;SDS011;12674;51.500;7.552;2023-04-25T09:20:17;11.30;;;2.60;;
4986;SDS011;12674;51.500;7.552;2023-04-25T09:25:55;10.70;;;2.47;;
4986;SDS011;12674;51.500;7.552;2023-04-25T09:27:58;11.40;;;2.83;;
4986;SDS011;12674;51.500;7.552;2023-04-25T09:30:06;10.55;;;2.42;;
4986;SDS011;12674;51.500;7.552;2023-04-25T09:32:31;7.20;;;2.60;;
4986;SDS011;12674;51.500;7.552;2023-04-25T09:34:37;7.17;;;1.90;;
4986;SDS011;12674;51.500;7.552;2023-04-25T09:36:43;12.60;;;2.80;;
4986;SDS011;12674;51.500;7.552;2023-04-25T09:39:28;20.87;;;3.47;;
4986;SDS011;12674;51.500;7.552;2023-04-25T09:41:42;10.27;;;2.30;;
4986;SDS011;12674;51.500;7.552;2023-04-25T09:43:45;9.43;;;2.47;;
4986;SDS011;12674;51.500;7.552;2023-04-25T09:45:49;13.40;;;2.77;;
4986;SDS011;12674;51.500;7.552;2023-04-25T09:47:56;13.50;;;2.93;;
4986;SDS011;12674;51.500;7.552;2023-04-25T09:50:05;8.80;;;2.03;;
4986;SDS011;12674;51.500;7.552;2023-04-25T09:52:19;13.53;;;2.13;;
4986;SDS011;12674;51.500;7.552;2023-04-25T09:54:43;5.67;;;2.20;;
4986;SDS011;12674;51.500;7.552;2023-04-25T09:56:49;13.90;;;2.90;;
4986;SDS011;12674;51.500;7.552;2023-04-25T09:58:56;12.50;;;2.50;;
4986;SDS011;12674;51.500;7.552;2023-04-25T10:00:59;10.93;;;2.77;;
4986;SDS011;12674;51.500;7.552;2023-04-25T10:03:13;12.27;;;3.13;;
4986;SDS011;12674;51.500;7.552;2023-04-25T10:05:50;14.20;;;2.53;;
4986;SDS011;12674;51.500;7.552;2023-04-25T10:07:53;13.70;;;2.30;;
4986;SDS011;12674;51.500;7.552;2023-04-25T10:09:58;7.47;;;2.33;;
4986;SDS011;12674;51.500;7.552;2023-04-25T10:12:04;15.00;;;3.67;;
4986;SDS011;12674;51.500;7.552;2023-04-25T10:14:07;6.73;;;2.50;;
4986;SDS011;12674;51.500;7.552;2023-04-25T10:16:11;13.00;;;2.73;;
4986;SDS011;12674;51.500;7.552;2023-04-25T10:18:15;14.00;;;2.90;;
4986;SDS011;12674;51.500;7.552;2023-04-25T10:20:21;11.33;;;2.30;;
4986;SDS011;12674;51.500;7.552;2023-04-25T10:22:26;12.90;;;2.77;;
4986;SDS011;12674;51.500;7.552;2023-04-25T10:24:33;11.60;;;2.57;;
4986;SDS011;12674;51.500;7.552;2023-04-25T10:26:36;10.47;;;2.20;;
4986;SDS011;12674;51.500;7.552;2023-04-25T10:28:55;7.53;;;2.10;;
4986;SDS011;12674;51.500;7.552;2023-04-25T10:30:58;6.23;;;1.83;;
4986;SDS011;12674;51.500;7.552;2023-04-25T10:33:02;9.23;;;2.03;;
4986;SDS011;12674;51.500;7.552;2023-04-25T10:35:24;9.73;;;1.85;;
4986;SDS011;12674;51.500;7.552;2023-04-25T10:37:27;9.57;;;2.03;;
4986;SDS011;12674;51.500;7.552;2023-04-25T10:39:30;8.13;;;2.17;;
4986;SDS011;12674;51.500;7.552;2023-04-25T10:41:47;13.38;;;2.70;;
4986;SDS011;12674;51.500;7.552;2023-04-25T10:43:58;8.98;;;1.88;;
4986;SDS011;12674;51.500;7.552;2023-04-25T10:46:02;7.93;;;1.88;;
4986;SDS011;12674;51.500;7.552;2023-04-25T10:48:25;6.70;;;1.95;;
4986;SDS011;12674;51.500;7.552;2023-04-25T10:50:36;5.90;;;2.03;;
4986;SDS011;12674;51.500;7.552;2023-04-25T10:52:39;8.52;;;1.77;;
4986;SDS011;12674;51.500;7.552;2023-04-25T10:54:43;8.93;;;2.10;;
4986;SDS011;12674;51.500;7.552;2023-04-25T10:56:49;13.90;;;2.08;;
4986;SDS011;12674;51.500;7.552;2023-04-25T10:59:04;9.27;;;2.33;;
4986;SDS011;12674;51.500;7.552;2023-04-25T11:01:08;6.82;;;1.77;;
4986;SDS011;12674;51.500;7.552;2023-04-25T11:03:11;5.72;;;1.98;;
4986;SDS011;12674;51.500;7.552;2023-04-25T11:05:22;8.25;;;1.50;;
4986;SDS011;12674;51.500;7.552;2023-04-25T11:07:28;12.25;;;1.85;;
4986;SDS011;12674;51.500;7.552;2023-04-25T11:09:38;5.00;;;1.60;;
4986;SDS011;12674;51.500;7.552;2023-04-25T11:11:41;13.57;;;1.98;;
4986;SDS011;12674;51.500;7.552;2023-04-25T11:13:47;9.77;;;1.83;;
4986;SDS011;12674;51.500;7.552;2023-04-25T11:15:51;7.13;;;1.67;;
4986;SDS011;12674;51.500;7.552;2023-04-25T11:18:15;10.60;;;1.57;;
4986;SDS011;12674;51.500;7.552;2023-04-25T11:20:21;6.70;;;2.10;;
4986;SDS011;12674;51.500;7.552;2023-04-25T11:22:24;12.93;;;2.20;;
4986;SDS011;12674;51.500;7.552;2023-04-25T11:24:29;5.00;;;1.70;;
4986;SDS011;12674;51.500;7.552;2023-04-25T11:26:33;7.60;;;1.80;;
4986;SDS011;12674;51.500;7.552;2023-04-25T11:28:36;5.23;;;1.87;;
4986;SDS011;12674;51.500;7.552;2023-04-25T11:30:39;12.47;;;2.00;;
4986;SDS011;12674;51.500;7.552;2023-04-25T11:32:42;9.77;;;1.60;;
4986;SDS011;12674;51.500;7.552;2023-04-25T11:34:46;6.90;;;1.63;;
4986;SDS011;12674;51.500;7.552;2023-04-25T11:36:50;10.43;;;1.83;;
4986;SDS011;12674;51.500;7.552;2023-04-25T11:38:54;10.07;;;1.80;;
4986;SDS011;12674;51.500;7.552;2023-04-25T11:40:57;12.23;;;2.50;;
4986;SDS011;12674;51.500;7.552;2023-04-25T11:43:02;12.43;;;1.63;;
4986;SDS011;12674;51.500;7.552;2023-04-25T11:45:05;4.17;;;1.50;;
4986;SDS011;12674;51.500;7.552;2023-04-25T11:47:09;11.83;;;2.30;;
4986;SDS011;12674;51.500;7.552;2023-04-25T11:49:12;7.20;;;1.93;;
4986;SDS011;12674;51.500;7.552;2023-04-25T11:51:15;2.67;;;1.60;;
4986;SDS011;12674;51.500;7.552;2023-04-25T11:53:19;4.83;;;2.00;;
4986;SDS011;12674;51.500;7.552;2023-04-25T11:55:22;6.50;;;1.90;;
4986;SDS011;12674;51.500;7.552;2023-04-25T11:57:25;6.73;;;1.97;;
4986;SDS011;12674;51.500;7.552;2023-04-25T11:59:28;8.53;;;2.17;;
4986;SDS011;12674;51.500;7.552;2023-04-25T12:01:31;11.10;;;2.07;;
4986;SDS011;12674;51.500;7.552;2023-04-25T12:03:45;4.40;;;1.43;;
4986;SDS011;12674;51.500;7.552;2023-04-25T12:05:48;7.73;;;1.50;;
4986;SDS011;12674;51.500;7.552;2023-04-25T12:07:53;6.60;;;1.40;;
4986;SDS011;12674;51.500;7.552;2023-04-25T12:09:57;7.10;;;1.50;;
4986;SDS011;12674;51.500;7.552;2023-04-25T12:12:00;2.40;;;1.07;;
4986;SDS011;12674;51.500;7.552;2023-04-25T12:14:05;9.23;;;1.60;;
4986;SDS011;12674;51.500;7.552;2023-04-25T12:16:08;6.17;;;1.97;;
4986;SDS011;12674;51.500;7.552;2023-04-25T12:18:11;14.53;;;1.87;;
4986;SDS011;12674;51.500;7.552;2023-04-25T12:20:14;5.50;;;1.58;;
4986;SDS011;12674;51.500;7.552;2023-04-25T12:22:19;4.55;;;1.40;;
4986;SDS011;12674;51.500;7.552;2023-04-25T12:24:23;5.25;;;1.38;;
4986;SDS011;12674;51.500;7.552;2023-04-25T12:26:32;4.05;;;1.38;;
4986;SDS011;12674;51.500;7.552;2023-04-25T12:28:48;40.60;;;4.03;;
4986;SDS011;12674;51.500;7.552;2023-04-25T12:30:55;10.18;;;2.00;;
4986;SDS011;12674;51.500;7.552;2023-04-25T12:33:00;3.95;;;1.45;;
4986;SDS011;12674;51.500;7.552;2023-04-25T12:35:04;8.73;;;1.50;;
4986;SDS011;12674;51.500;7.552;2023-04-25T12:37:08;21.30;;;1.80;;
4986;SDS011;12674;51.500;7.552;2023-04-25T12:39:14;8.43;;;1.40;;
4986;SDS011;12674;51.500;7.552;2023-04-25T12:41:17;11.63;;;1.30;;
4986;SDS011;12674;51.500;7.552;2023-04-25T12:43:22;5.80;;;1.27;;
4986;SDS011;12674;51.500;7.552;2023-04-25T12:45:26;5.22;;;1.33;;
4986;SDS011;12674;51.500;7.552;2023-04-25T12:47:30;3.63;;;1.10;;
4986;SDS011;12674;51.500;7.552;2023-04-25T12:49:36;10.88;;;1.55;;
4986;SDS011;12674;51.500;7.552;2023-04-25T12:51:40;9.05;;;1.17;;
4986;SDS011;12674;51.500;7.552;2023-04-25T12:53:43;5.47;;;1.23;;